Time;durP1;ratioP1;P1;durP2;ratioP2;P2;SDS_P1;SDS_P2;PMS_P1;PMS_P2;Temp;Humidity;BMP_temperature;BMP_pressure;BME280_temperature;BME280_humidity;BME280_pressure;Samples;Min_cycle;Max_cycle;Signal;HPM_P1;HPM_P2
2022/06/27 00:03:22;;;;;;;;;;;;;;;18.56;52.01953;101614.7;;;;-83
2022/06/27 00:08:21;;;;;;;;;;;;;;;18.55;52.16699;101609.1;;;;-84
2022/06/27 00:13:21;;;;;;;;;;;;;;;18.52;52.06152;101619.4;;;;-84
2022/06/27 00:18:23;;;;;;;;;;;;;;;18.51;52.18457;101621.6;;;;-83
2022/06/27 00:23:20;;;;;;;;;;;;;;;18.5;52.09375;101617.4;;;;-83
2022/06/27 00:28:21;;;;;;;;;;;;;;;18.47;52;101617.3;;;;-84
2022/06/27 00:29:29;;;;;;;4.9;2.6;;;;;;;;;;;;;-82
2022/06/27 00:33:20;;;;;;;;;;;;;;;18.47;52.05566;101623.7;;;;-84
2022/06/27 00:38:21;;;;;;;;;;;;;;;18.46;51.98535;101621.1;;;;-82
2022/06/27 00:43:21;;;;;;;;;;;;;;;18.44;51.98438;101621.4;;;;-83
2022/06/27 00:48:20;;;;;;;;;;;;;;;18.41;52.01465;101619;;;;-84
2022/06/27 00:53:22;;;;;;;;;;;;;;;18.41;52.15039;101629.5;;;;-83
2022/06/27 00:58:22;;;;;;;;;;;;;;;18.39;51.92188;101635.8;;;;-84
2022/06/27 00:59:31;;;;;;;5;2.5;;;;;;;;;;;;;-82
2022/06/27 01:03:20;;;;;;;;;;;;;;;18.38;52.08984;101641.7;;;;-84
2022/06/27 01:08:22;;;;;;;;;;;;;;;18.38;52.01074;101648.5;;;;-83
2022/06/27 01:13:21;;;;;;;;;;;;;;;18.37;52.44043;101644.7;;;;-83
2022/06/27 01:18:21;;;;;;;;;;;;;;;18.35;52.43945;101648.8;;;;-85
2022/06/27 01:23:21;;;;;;;;;;;;;;;18.33;52.45898;101649.8;;;;-81
2022/06/27 01:28:21;;;;;;;;;;;;;;;18.32;52.69629;101641.5;;;;-83
2022/06/27 01:29:33;;;;;;;4.1;2.4;;;;;;;;;;;;;-83
2022/06/27 01:33:20;;;;;;;;;;;;;;;18.32;52.72949;101640.6;;;;-82
2022/06/27 01:38:21;;;;;;;;;;;;;;;18.29;52.98633;101638.5;;;;-84
2022/06/27 01:43:20;;;;;;;;;;;;;;;18.29;53.06738;101630.8;;;;-82
2022/06/27 01:48:20;;;;;;;;;;;;;;;18.27;52.89355;101621.5;;;;-85
2022/06/27 01:53:21;;;;;;;;;;;;;;;18.25;53.15332;101627;;;;-84
2022/06/27 01:58:20;;;;;;;;;;;;;;;18.23;53.89941;101624.4;;;;-83
2022/06/27 01:59:36;;;;;;;4.5;2.6;;;;;;;;;;;;;-84
2022/06/27 02:08:27;;;;;;;;;;;;;;;18.18;53.80371;101628.9;;;;-83
2022/06/27 02:13:21;;;;;;;;;;;;;;;18.15;54.19727;101628.3;;;;-85
2022/06/27 02:18:20;;;;;;;;;;;;;;;18.12;54.25098;101628;;;;-83
2022/06/27 02:23:20;;;;;;;;;;;;;;;18.09;54.18848;101616.9;;;;-82
2022/06/27 02:28:22;;;;;;;;;;;;;;;18.07;54.3457;101611;;;;-84
2022/06/27 02:29:37;;;;;;;4.3;2.6;;;;;;;;;;;;;-82
2022/06/27 02:33:21;;;;;;;;;;;;;;;18.04;54.52344;101605.9;;;;-83
2022/06/27 02:38:21;;;;;;;;;;;;;;;18;54.30469;101597.9;;;;-84
2022/06/27 02:43:22;;;;;;;;;;;;;;;17.98;54.27832;101588;;;;-84
2022/06/27 02:48:20;;;;;;;;;;;;;;;17.95;54.13867;101590.9;;;;-84
2022/06/27 02:53:23;;;;;;;;;;;;;;;17.91;54.49609;101589.4;;;;-83
2022/06/27 02:58:22;;;;;;;;;;;;;;;17.87;54.12891;101596.3;;;;-83
2022/06/27 02:59:41;;;;;;;4.9;2.4;;;;;;;;;;;;;-83
2022/06/27 03:03:21;;;;;;;;;;;;;;;17.82;53.95313;101595.1;;;;-82
2022/06/27 03:08:20;;;;;;;;;;;;;;;17.79;54.01758;101587.4;;;;-82
2022/06/27 03:13:20;;;;;;;;;;;;;;;17.75;54.11426;101585.5;;;;-82
2022/06/27 03:18:21;;;;;;;;;;;;;;;17.7;54.13184;101569.8;;;;-83
2022/06/27 03:23:20;;;;;;;;;;;;;;;17.64;53.94238;101573.8;;;;-82
2022/06/27 03:28:22;;;;;;;;;;;;;;;17.57;53.92188;101563.6;;;;-84
2022/06/27 03:29:41;;;;;;;3.7;2.3;;;;;;;;;;;;;-84
2022/06/27 03:33:20;;;;;;;;;;;;;;;17.49;54.01563;101550.3;;;;-84
2022/06/27 03:38:20;;;;;;;;;;;;;;;17.42;53.96094;101538.9;;;;-83
2022/06/27 03:43:20;;;;;;;;;;;;;;;17.35;54.05371;101539.7;;;;-83
2022/06/27 03:53:20;;;;;;;;;;;;;;;17.21;54.10547;101560.8;;;;-82
2022/06/27 03:58:20;;;;;;;;;;;;;;;17.15;54.24609;101562.8;;;;-82
2022/06/27 03:59:44;;;;;;;4.5;2.5;;;;;;;;;;;;;-84
2022/06/27 04:03:21;;;;;;;;;;;;;;;17.11;54.05762;101559.7;;;;-84
2022/06/27 04:08:20;;;;;;;;;;;;;;;17.11;54.11426;101560.3;;;;-83
2022/06/27 04:13:21;;;;;;;;;;;;;;;17.12;54.13867;101560.2;;;;-82
2022/06/27 04:18:20;;;;;;;;;;;;;;;17.13;54.0498;101549;;;;-83
2022/06/27 04:23:21;;;;;;;;;;;;;;;17.12;54.66992;101549.2;;;;-83
2022/06/27 04:28:20;;;;;;;;;;;;;;;17.1;53.97852;101528.2;;;;-82
2022/06/27 04:29:44;;;;;;;3.7;2.2;;;;;;;;;;;;;-83
2022/06/27 04:33:20;;;;;;;;;;;;;;;17.09;53.89746;101539.2;;;;-83
2022/06/27 04:38:21;;;;;;;;;;;;;;;17.06;53.83691;101557.7;;;;-83
2022/06/27 04:43:21;;;;;;;;;;;;;;;17.07;53.67969;101558.2;;;;-82
2022/06/27 04:48:20;;;;;;;;;;;;;;;17.08;53.8291;101565.2;;;;-83
2022/06/27 04:53:21;;;;;;;;;;;;;;;17.14;54.0625;101561.8;;;;-84
2022/06/27 04:58:26;;;;;;;;;;;;;;;17.18;53.68164;101533;;;;-83
2022/06/27 05:00:00;;;;;;;3.2;2;;;;;;;;;;;;;-84
2022/06/27 05:03:23;;;;;;;;;;;;;;;17.23;53.59766;101511.5;;;;-85
2022/06/27 05:08:20;;;;;;;;;;;;;;;17.3;53.46973;101500.1;;;;-83
2022/06/27 05:13:22;;;;;;;;;;;;;;;17.37;53.33105;101499.3;;;;-84
2022/06/27 05:18:34;;;;;;;;;;;;;;;17.42;53.13379;101494.6;;;;-83
2022/06/27 05:23:20;;;;;;;;;;;;;;;17.5;53.00684;101503;;;;-84
2022/06/27 05:28:20;;;;;;;;;;;;;;;17.57;52.90137;101504.6;;;;-83
2022/06/27 05:29:50;;;;;;;3.7;2;;;;;;;;;;;;;-84
2022/06/27 05:33:22;;;;;;;;;;;;;;;17.66;52.75391;101527.5;;;;-84
2022/06/27 05:38:24;;;;;;;;;;;;;;;18.01;53.10156;101554;;;;-83
2022/06/27 05:43:21;;;;;;;;;;;;;;;18.6;51.72949;101525.1;;;;-84
2022/06/27 05:48:22;;;;;;;;;;;;;;;18.85;51.13379;101544.5;;;;-84
2022/06/27 05:53:21;;;;;;;;;;;;;;;18.89;51.06934;101541.6;;;;-84
2022/06/27 05:58:29;;;;;;;;;;;;;;;18.9;51.15039;101567.6;;;;-84
2022/06/27 05:59:51;;;;;;;3.5;2;;;;;;;;;;;;;-84
2022/06/27 06:03:21;;;;;;;;;;;;;;;18.88;51.31836;101556.9;;;;-83
2022/06/27 06:08:20;;;;;;;;;;;;;;;18.9;51.53711;101562.8;;;;-85
2022/06/27 06:13:20;;;;;;;;;;;;;;;18.92;51.65234;101578.4;;;;-83
2022/06/27 06:18:21;;;;;;;;;;;;;;;18.95;51.94141;101587.9;;;;-83
2022/06/27 06:23:21;;;;;;;;;;;;;;;18.99;52.29785;101596.9;;;;-84
2022/06/27 06:28:21;;;;;;;;;;;;;;;19.05;52.13477;101611.4;;;;-84
2022/06/27 06:29:54;;;;;;;6.4;2.6;;;;;;;;;;;;;-85
2022/06/27 06:33:22;;;;;;;;;;;;;;;19.12;52.39355;101606.4;;;;-84
2022/06/27 06:38:20;;;;;;;;;;;;;;;19.21;52.36914;101607.7;;;;-82
2022/06/27 06:43:20;;;;;;;;;;;;;;;19.29;52.27637;101602;;;;-84
2022/06/27 06:48:22;;;;;;;;;;;;;;;19.4;52.7793;101606.5;;;;-83
2022/06/27 06:53:21;;;;;;;;;;;;;;;19.52;53.04395;101627.4;;;;-84
2022/06/27 06:58:22;;;;;;;;;;;;;;;19.64;53.19434;101640.9;;;;-83
2022/06/27 06:59:57;;;;;;;5.1;2.7;;;;;;;;;;;;;-82
2022/06/27 07:03:21;;;;;;;;;;;;;;;19.76;53.08301;101641.8;;;;-83
2022/06/27 07:08:21;;;;;;;;;;;;;;;19.89;53.38281;101647.7;;;;-83
2022/06/27 07:13:21;;;;;;;;;;;;;;;19.99;53.08887;101617.3;;;;-82
2022/06/27 07:18:21;;;;;;;;;;;;;;;20.05;53.06055;101576.1;;;;-83
2022/06/27 07:23:21;;;;;;;;;;;;;;;20.1;52.85059;101561.5;;;;-84
2022/06/27 07:28:25;;;;;;;;;;;;;;;20.14;53.02734;101554.3;;;;-85
2022/06/27 07:29:59;;;;;;;4.9;3;;;;;;;;;;;;;-83
2022/06/27 07:33:20;;;;;;;;;;;;;;;20.18;52.64355;101536.3;;;;-84
2022/06/27 07:38:22;;;;;;;;;;;;;;;20.22;52.55664;101542.9;;;;-84
2022/06/27 07:43:22;;;;;;;;;;;;;;;20.26;52.60645;101548;;;;-84
2022/06/27 07:48:21;;;;;;;;;;;;;;;20.29;52.57617;101574.8;;;;-84
2022/06/27 07:53:24;;;;;;;;;;;;;;;20.33;52.91211;101587.4;;;;-84
2022/06/27 07:58:30;;;;;;;;;;;;;;;20.38;53.02148;101584.6;;;;-84
2022/06/27 08:00:02;;;;;;;5.8;3.5;;;;;;;;;;;;;-83
2022/06/27 08:03:44;;;;;;;;;;;;;;;20.47;53.22461;101597.8;;;;-83
2022/06/27 08:08:30;;;;;;;;;;;;;;;20.54;53.13184;101599.5;;;;-80
2022/06/27 08:13:21;;;;;;;;;;;;;;;20.62;53.51758;101592.5;;;;-82
2022/06/27 08:18:21;;;;;;;;;;;;;;;20.69;53.24023;101608.2;;;;-83
2022/06/27 08:23:21;;;;;;;;;;;;;;;20.78;53.26172;101623.9;;;;-85
2022/06/27 08:28:22;;;;;;;;;;;;;;;20.84;53.19043;101617.6;;;;-87
2022/06/27 08:30:05;;;;;;;6.5;3.3;;;;;;;;;;;;;-83
2022/06/27 08:33:23;;;;;;;;;;;;;;;20.93;53.10938;101619;;;;-87
2022/06/27 08:38:32;;;;;;;;;;;;;;;21.02;53.00586;101608.4;;;;-85
2022/06/27 08:43:22;;;;;;;;;;;;;;;21.12;52.78906;101595.7;;;;-86
2022/06/27 08:48:22;;;;;;;;;;;;;;;21.25;52.49512;101607.1;;;;-84
2022/06/27 08:53:24;;;;;;;;;;;;;;;21.34;52.58691;101614;;;;-86
2022/06/27 08:58:27;;;;;;;;;;;;;;;21.43;52.44922;101603.9;;;;-84
2022/06/27 09:00:06;;;;;;;6.8;3.1;;;;;;;;;;;;;-84
2022/06/27 09:03:22;;;;;;;;;;;;;;;21.55;52.13086;101633;;;;-85
2022/06/27 09:08:20;;;;;;;;;;;;;;;21.65;51.84473;101642.9;;;;-82
2022/06/27 09:13:21;;;;;;;;;;;;;;;21.73;51.79688;101665.3;;;;-85
2022/06/27 09:18:25;;;;;;;;;;;;;;;21.77;51.56055;101653.2;;;;-83
2022/06/27 09:23:31;;;;;;;;;;;;;;;21.79;51.72363;101647.8;;;;-84
2022/06/27 09:28:21;;;;;;;;;;;;;;;21.8;51.74805;101658.4;;;;-83
2022/06/27 09:30:17;;;;;;;7.2;3.2;;;;;;;;;;;;;-82
2022/06/27 09:33:21;;;;;;;;;;;;;;;21.82;51.52051;101666.5;;;;-85
2022/06/27 09:38:22;;;;;;;;;;;;;;;21.83;51.73926;101668.4;;;;-84
2022/06/27 09:43:23;;;;;;;;;;;;;;;21.84;51.58008;101659.1;;;;-85
2022/06/27 09:48:22;;;;;;;;;;;;;;;21.88;51.7793;101655.9;;;;-84
2022/06/27 09:53:26;;;;;;;;;;;;;;;21.92;51.55566;101660.2;;;;-85
2022/06/27 09:58:22;;;;;;;;;;;;;;;21.96;51.31934;101651;;;;-84
2022/06/27 10:00:13;;;;;;;6.8;3.2;;;;;;;;;;;;;-85
2022/06/27 10:03:21;;;;;;;;;;;;;;;21.98;51.35645;101652.3;;;;-84
2022/06/27 10:08:23;;;;;;;;;;;;;;;21.98;51.16211;101663.8;;;;-84
2022/06/27 10:13:21;;;;;;;;;;;;;;;21.98;51.12695;101666.1;;;;-86
2022/06/27 10:18:22;;;;;;;;;;;;;;;21.93;51.14551;101658;;;;-84
2022/06/27 10:23:37;;;;;;;;;;;;;;;21.89;51.35742;101650.5;;;;-85
2022/06/27 10:28:24;;;;;;;;;;;;;;;21.85;51.23828;101653.2;;;;-82
2022/06/27 10:30:26;;;;;;;5.3;2.8;;;;;;;;;;;;;-85
2022/06/27 10:33:31;;;;;;;;;;;;;;;21.82;51.24609;101653.8;;;;-83
2022/06/27 10:38:31;;;;;;;;;;;;;;;21.77;51.32031;101655.8;;;;-84
2022/06/27 10:43:31;;;;;;;;;;;;;;;21.73;51.37402;101653;;;;-85
2022/06/27 10:48:31;;;;;;;;;;;;;;;21.73;51.46484;101661.1;;;;-85
2022/06/27 10:53:30;;;;;;;;;;;;;;;21.75;51.48926;101664.1;;;;-86
2022/06/27 10:58:27;;;;;;;;;;;;;;;21.78;51.81348;101654.7;;;;-84
2022/06/27 11:00:26;;;;;;;6.4;3;;;;;;;;;;;;;-83
2022/06/27 11:03:37;;;;;;;;;;;;;;;21.82;52.00195;101658.7;;;;-88
2022/06/27 11:08:22;;;;;;;;;;;;;;;21.88;52.40918;101664.8;;;;-86
2022/06/27 11:13:32;;;;;;;;;;;;;;;21.93;52.28906;101665.8;;;;-85
2022/06/27 11:18:20;;;;;;;;;;;;;;;21.99;52.59473;101658.8;;;;-86
2022/06/27 11:23:21;;;;;;;;;;;;;;;22.07;52.68359;101660.8;;;;-83
2022/06/27 11:33:22;;;;;;;;;;;;;;;22.25;52.48828;101651.4;;;;-84
2022/06/27 11:38:23;;;;;;;;;;;;;;;22.33;52.0957;101656.3;;;;-85
2022/06/27 11:43:22;;;;;;;;;;;;;;;22.39;51.78223;101656.7;;;;-84
2022/06/27 11:48:21;;;;;;;;;;;;;;;22.45;51.5127;101640.5;;;;-81
2022/06/27 11:53:21;;;;;;;;;;;;;;;22.48;51.28711;101651.9;;;;-82
2022/06/27 11:58:21;;;;;;;;;;;;;;;22.5;51.2666;101659.6;;;;-83
2022/06/27 12:00:26;;;;;;;7.5;3.9;;;;;;;;;;;;;-82
2022/06/27 12:03:22;;;;;;;;;;;;;;;22.53;51.56934;101643.8;;;;-85
2022/06/27 12:08:20;;;;;;;;;;;;;;;22.59;51.72461;101642.1;;;;-78
2022/06/27 12:13:21;;;;;;;;;;;;;;;22.69;51.50586;101643.2;;;;-76
2022/06/27 12:18:20;;;;;;;;;;;;;;;22.75;51.35254;101653.2;;;;-78
2022/06/27 12:23:26;;;;;;;;;;;;;;;22.74;51.04199;101660.5;;;;-87
2022/06/27 12:28:26;;;;;;;;;;;;;;;22.69;50.88672;101656.4;;;;-87
2022/06/27 12:30:26;;;;;;;7.9;3.5;;;;;;;;;;;;;-86
2022/06/27 12:33:23;;;;;;;;;;;;;;;22.59;50.94434;101649.9;;;;-86
2022/06/27 12:38:21;;;;;;;;;;;;;;;22.51;50.98145;101647.3;;;;-85
2022/06/27 12:43:24;;;;;;;;;;;;;;;22.45;51.23828;101657.9;;;;-86
2022/06/27 12:48:27;;;;;;;;;;;;;;;22.4;51.38184;101655.7;;;;-85
2022/06/27 12:53:21;;;;;;;;;;;;;;;22.37;51.60645;101649.1;;;;-85
2022/06/27 12:58:21;;;;;;;;;;;;;;;22.36;51.73145;101652.9;;;;-86
2022/06/27 13:00:32;;;;;;;6.7;3.1;;;;;;;;;;;;;-85
2022/06/27 13:03:24;;;;;;;;;;;;;;;22.33;51.14453;101663.7;;;;-87
2022/06/27 13:08:22;;;;;;;;;;;;;;;22.28;50.82813;101680.5;;;;-85
2022/06/27 13:13:25;;;;;;;;;;;;;;;22.21;50.72949;101692.1;;;;-85
2022/06/27 13:18:23;;;;;;;;;;;;;;;22.14;50.93848;101713.7;;;;-84
2022/06/27 13:23:25;;;;;;;;;;;;;;;22.08;51.57324;101724.3;;;;-83
2022/06/27 13:28:23;;;;;;;;;;;;;;;22.05;51.68457;101738.7;;;;-85
2022/06/27 13:30:36;;;;;;;7.3;3.9;;;;;;;;;;;;;-86
2022/06/27 13:33:21;;;;;;;;;;;;;;;22.03;52.34668;101751.7;;;;-86
2022/06/27 13:38:22;;;;;;;;;;;;;;;22;52.27441;101751.7;;;;-84
2022/06/27 13:43:33;;;;;;;;;;;;;;;21.94;53.27539;101762.8;;;;-84
2022/06/27 13:48:22;;;;;;;;;;;;;;;21.81;52.82617;101798.6;;;;-85
2022/06/27 13:53:21;;;;;;;;;;;;;;;21.47;54.09863;101797.2;;;;-82
2022/06/27 13:58:27;;;;;;;;;;;;;;;20.86;54.96191;101837.3;;;;-83
2022/06/27 14:00:32;;;;;;;8.9;3;;;;;;;;;;;;;-83
2022/06/27 14:03:32;;;;;;;;;;;;;;;20.44;55.05762;101853.3;;;;-83
2022/06/27 14:08:31;;;;;;;;;;;;;;;20.13;55.19043;101892.3;;;;-82
2022/06/27 14:13:20;;;;;;;;;;;;;;;19.8;55.58301;101900.9;;;;-82
2022/06/27 14:18:30;;;;;;;;;;;;;;;19.56;56.01855;101908;;;;-82
2022/06/27 14:23:20;;;;;;;;;;;;;;;19.33;56.69434;101915.2;;;;-81
2022/06/27 14:28:20;;;;;;;;;;;;;;;19.14;56.86523;101920.7;;;;-82
2022/06/27 14:30:35;;;;;;;5.2;1.7;;;;;;;;;;;;;-82
2022/06/27 14:33:20;;;;;;;;;;;;;;;18.99;57.51465;101923.2;;;;-81
2022/06/27 14:38:20;;;;;;;;;;;;;;;18.88;58.11426;101917.9;;;;-82
2022/06/27 14:43:20;;;;;;;;;;;;;;;18.78;58.52051;101906.3;;;;-84
2022/06/27 14:48:20;;;;;;;;;;;;;;;18.68;58.46191;101888.9;;;;-83
2022/06/27 14:53:20;;;;;;;;;;;;;;;18.62;58.44238;101876;;;;-81
2022/06/27 14:58:22;;;;;;;;;;;;;;;18.58;58.46094;101867.8;;;;-82
2022/06/27 15:00:37;;;;;;;4;1.6;;;;;;;;;;;;;-83
2022/06/27 15:03:20;;;;;;;;;;;;;;;18.57;58.67383;101851.9;;;;-83
2022/06/27 15:08:20;;;;;;;;;;;;;;;18.58;58.90234;101852.7;;;;-83
2022/06/27 15:13:20;;;;;;;;;;;;;;;18.58;58.85742;101837.6;;;;-81
2022/06/27 15:18:24;;;;;;;;;;;;;;;18.57;58.90137;101846.6;;;;-86
2022/06/27 15:23:20;;;;;;;;;;;;;;;18.58;59.12988;101829.1;;;;-84
2022/06/27 15:28:20;;;;;;;;;;;;;;;18.58;59.03906;101834.3;;;;-84
2022/06/27 15:30:40;;;;;;;5.2;1.7;;;;;;;;;;;;;-85
2022/06/27 15:33:22;;;;;;;;;;;;;;;18.58;59.15234;101809;;;;-86
2022/06/27 15:38:20;;;;;;;;;;;;;;;18.59;59.09668;101827.4;;;;-85
2022/06/27 15:43:20;;;;;;;;;;;;;;;18.62;59.16895;101831.9;;;;-83
2022/06/27 15:48:21;;;;;;;;;;;;;;;18.64;59.28418;101820.1;;;;-85
2022/06/27 15:53:22;;;;;;;;;;;;;;;18.67;59.69727;101810.1;;;;-83
2022/06/27 15:58:20;;;;;;;;;;;;;;;18.74;59.33301;101806;;;;-83
2022/06/27 16:00:43;;;;;;;3.6;1.4;;;;;;;;;;;;;-83
2022/06/27 16:03:22;;;;;;;;;;;;;;;18.8;59.43066;101809.7;;;;-83
2022/06/27 16:08:22;;;;;;;;;;;;;;;18.85;59.39258;101821;;;;-84
2022/06/27 16:13:24;;;;;;;;;;;;;;;18.9;59.86426;101831.1;;;;-84
2022/06/27 16:18:21;;;;;;;;;;;;;;;19;60.25195;101856.2;;;;-83
2022/06/27 16:23:20;;;;;;;;;;;;;;;19.11;60.70801;101872.2;;;;-82
2022/06/27 16:36:46;;;;;;;;;;;;;;;19.71;60.75781;101891.1;;;;-84
2022/06/27 16:41:04;;;;;;;;;;;;;;;19.36;61.78809;101882.4;;;;-83
2022/06/27 16:46:02;;;;;;;;;;;;;;;19.43;61.59375;101879.6;;;;-83
2022/06/27 16:51:09;;;;;;;;;;;;;;;19.5;61.04688;101884;;;;-84
2022/06/27 16:56:01;;;;;;;;;;;;;;;19.58;61.0459;101884.1;;;;-83
2022/06/27 17:00:47;;;;;;;6.2;2.4;;;;;;;;;;;;;-83
2022/06/27 17:01:02;;;;;;;;;;;;;;;19.6;61.01563;101880.5;;;;-83
2022/06/27 17:06:15;;;;;;;;;;;;;;;19.59;61.00293;101876.3;;;;-84
2022/06/27 17:11:02;;;;;;;;;;;;;;;19.64;60.92969;101876;;;;-82
2022/06/27 17:16:04;;;;;;;;;;;;;;;19.7;60.59766;101875.8;;;;-87
2022/06/27 17:21:05;;;;;;;;;;;;;;;19.79;60.07422;101885.6;;;;-89
2022/06/27 17:26:12;;;;;;;;;;;;;;;19.83;59.74023;101892.4;;;;-88
2022/06/27 17:30:53;;;;;;;3.5;1.5;;;;;;;;;;;;;-90
2022/06/27 17:36:10;;;;;;;;;;;;;;;19.9;58.90723;101889;;;;-88
2022/06/27 17:41:22;;;;;;;;;;;;;;;19.89;58.55371;101890.8;;;;-87
2022/06/27 17:46:02;;;;;;;;;;;;;;;19.9;58.15625;101898.6;;;;-87
2022/06/27 17:51:02;;;;;;;;;;;;;;;19.91;58.02246;101910.6;;;;-85
2022/06/27 17:56:02;;;;;;;;;;;;;;;19.91;57.8291;101911.1;;;;-82
2022/06/27 18:00:50;;;;;;;4;1.3;;;;;;;;;;;;;-84
2022/06/27 18:01:13;;;;;;;;;;;;;;;19.88;57.58496;101918;;;;-82
2022/06/27 18:06:01;;;;;;;;;;;;;;;19.89;57.61914;101921.7;;;;-83
2022/06/27 18:11:06;;;;;;;;;;;;;;;19.88;57.48145;101924.1;;;;-86
2022/06/27 18:16:01;;;;;;;;;;;;;;;19.83;57.39551;101938.3;;;;-83
2022/06/27 18:21:10;;;;;;;;;;;;;;;19.79;57.19727;101944;;;;-86
2022/06/27 18:26:02;;;;;;;;;;;;;;;19.73;57.31445;101944.4;;;;-84
2022/06/27 18:30:54;;;;;;;3.7;1.1;;;;;;;;;;;;;-84
2022/06/27 18:31:08;;;;;;;;;;;;;;;19.56;57.05469;101932;;;;-84
2022/06/27 18:36:05;;;;;;;;;;;;;;;19.64;57.12207;101954.6;;;;-84
2022/06/27 18:41:01;;;;;;;;;;;;;;;19.61;57.02539;101953.5;;;;-83
2022/06/27 18:46:03;;;;;;;;;;;;;;;19.57;57.04492;101952;;;;-82
2022/06/27 18:51:02;;;;;;;;;;;;;;;19.53;56.9248;101952.8;;;;-83
2022/06/27 18:56:02;;;;;;;;;;;;;;;19.49;56.72656;101960.8;;;;-82
2022/06/27 19:00:55;;;;;;;4.4;1;;;;;;;;;;;;;-84
2022/06/27 19:01:07;;;;;;;;;;;;;;;19.4;56.31738;101962.4;;;;-81
2022/06/27 19:06:01;;;;;;;;;;;;;;;19.26;56.10645;101970.7;;;;-85
2022/06/27 19:11:03;;;;;;;;;;;;;;;19.1;56.08594;101975.6;;;;-82
2022/06/27 19:16:09;;;;;;;;;;;;;;;18.91;56.10645;101971.8;;;;-83
2022/06/27 19:21:01;;;;;;;;;;;;;;;18.68;56.2041;101970.8;;;;-83
2022/06/27 19:26:01;;;;;;;;;;;;;;;18.48;56.20117;101979.1;;;;-85
2022/06/27 19:31:07;;;;;;;3.1;1.1;;;;;;;;;;;;;-84
2022/06/27 19:31:21;;;;;;;;;;;;;;;18.24;56.0127;101977.4;;;;-82
2022/06/27 19:36:03;;;;;;;;;;;;;;;18.04;56.09961;101984.5;;;;-83
2022/06/27 19:41:01;;;;;;;;;;;;;;;17.82;56.17383;101987.1;;;;-82
2022/06/27 19:46:01;;;;;;;;;;;;;;;17.65;56.36719;101995.3;;;;-85
2022/06/27 19:51:05;;;;;;;;;;;;;;;17.41;56.8252;101996.5;;;;-84
2022/06/27 19:56:24;;;;;;;;;;;;;;;17.23;57.32129;102005.5;;;;-84
2022/06/27 20:01:12;;;;;;;3.8;0.9;;;;;;;;;;;;;-83
2022/06/27 20:01:25;;;;;;;;;;;;;;;16.92;57.64355;101996.4;;;;-84
2022/06/27 20:06:04;;;;;;;;;;;;;;;16.93;57.6543;102029.3;;;;-84
2022/06/27 20:11:01;;;;;;;;;;;;;;;16.79;57.68164;102035.8;;;;-82
2022/06/27 20:16:01;;;;;;;;;;;;;;;16.66;57.8916;102037.9;;;;-81
2022/06/27 20:21:01;;;;;;;;;;;;;;;16.52;58.21191;102041.9;;;;-85
2022/06/27 20:26:02;;;;;;;;;;;;;;;16.36;58.64258;102047.3;;;;-84
2022/06/27 20:31:01;;;;;;;;;;;;;;;16.24;58.88574;102043.7;;;;-86
2022/06/27 20:31:11;;;;;;;2;0.8;;;;;;;;;;;;;-86
2022/06/27 20:36:01;;;;;;;;;;;;;;;16.11;58.7998;102047.6;;;;-83
2022/06/27 20:41:04;;;;;;;;;;;;;;;15.98;59.2793;102043.7;;;;-84
2022/06/27 20:46:02;;;;;;;;;;;;;;;15.86;59.3418;102040.3;;;;-83
2022/06/27 20:51:01;;;;;;;;;;;;;;;15.72;59.33496;102033.1;;;;-85
2022/06/27 20:56:01;;;;;;;;;;;;;;;15.63;59.70703;102038;;;;-82
2022/06/27 21:01:01;;;;;;;;;;;;;;;15.54;59.43457;102041.9;;;;-84
2022/06/27 21:01:10;;;;;;;3.4;1.1;;;;;;;;;;;;;-84
2022/06/27 21:06:02;;;;;;;;;;;;;;;15.47;59.86426;102044;;;;-84
2022/06/27 21:16:01;;;;;;;;;;;;;;;15.26;59.89258;102041;;;;-84
2022/06/27 21:21:02;;;;;;;;;;;;;;;15.21;60.41309;102044.5;;;;-82
2022/06/27 21:26:01;;;;;;;;;;;;;;;15.1;60.84766;102043.4;;;;-83
2022/06/27 21:31:04;;;;;;;;;;;;;;;15.06;61.14648;102044;;;;-84
2022/06/27 21:31:15;;;;;;;5.2;1.2;;;;;;;;;;;;;-84
2022/06/27 21:36:02;;;;;;;;;;;;;;;15.03;61.64844;102040.3;;;;-84
2022/06/27 21:41:01;;;;;;;;;;;;;;;15.01;61.44336;102043.6;;;;-84
2022/06/27 21:46:01;;;;;;;;;;;;;;;14.99;60.93555;102051.3;;;;-83
2022/06/27 21:51:01;;;;;;;;;;;;;;;14.95;61.63672;102049.1;;;;-84
2022/06/27 21:56:02;;;;;;;;;;;;;;;14.93;61.48828;102049.8;;;;-85
2022/06/27 22:01:01;;;;;;;;;;;;;;;14.91;61.57617;102048.2;;;;-82
2022/06/27 22:01:11;;;;;;;3.4;0.9;;;;;;;;;;;;;-82
2022/06/27 22:06:03;;;;;;;;;;;;;;;14.89;61.6748;102047.6;;;;-83
2022/06/27 22:11:03;;;;;;;;;;;;;;;14.85;61.75781;102050.1;;;;-82
2022/06/27 22:16:01;;;;;;;;;;;;;;;14.8;61.63965;102044.7;;;;-83
2022/06/27 22:21:03;;;;;;;;;;;;;;;14.8;61.8623;102047.8;;;;-84
2022/06/27 22:26:02;;;;;;;;;;;;;;;14.77;61.99512;102046.4;;;;-83
2022/06/27 22:31:02;;;;;;;;;;;;;;;14.75;62.42773;102052;;;;-83
2022/06/27 22:31:11;;;;;;;4.7;1;;;;;;;;;;;;;-83
2022/06/27 22:36:01;;;;;;;;;;;;;;;14.73;62.48242;102056.1;;;;-83
2022/06/27 22:41:02;;;;;;;;;;;;;;;14.72;62.17871;102062.6;;;;-84
2022/06/27 22:46:01;;;;;;;;;;;;;;;14.69;62.4541;102058.4;;;;-83
2022/06/27 22:51:01;;;;;;;;;;;;;;;14.7;62.5;102057.2;;;;-83
2022/06/27 22:56:16;;;;;;;;;;;;;;;14.64;62.30176;102055.4;;;;-85
2022/06/27 23:01:02;;;;;;;;;;;;;;;14.61;62.81543;102055.2;;;;-83
2022/06/27 23:01:11;;;;;;;7.5;1;;;;;;;;;;;;;-83
2022/06/27 23:06:04;;;;;;;;;;;;;;;14.57;62.34766;102062.2;;;;-84
2022/06/27 23:11:01;;;;;;;;;;;;;;;14.53;63.94727;102062.6;;;;-83
2022/06/27 23:16:01;;;;;;;;;;;;;;;14.46;63.46484;102059.3;;;;-84
2022/06/27 23:21:02;;;;;;;;;;;;;;;14.45;63.72363;102060.4;;;;-83
2022/06/27 23:26:01;;;;;;;;;;;;;;;14.43;63.96484;102064.3;;;;-84
2022/06/27 23:31:02;;;;;;;;;;;;;;;14.4;63.82715;102069.9;;;;-82
2022/06/27 23:31:12;;;;;;;5.8;1;;;;;;;;;;;;;-82
2022/06/27 23:36:02;;;;;;;;;;;;;;;14.39;63.62305;102070.2;;;;-84
2022/06/27 23:41:01;;;;;;;;;;;;;;;14.33;63.2002;102064.8;;;;-83
2022/06/27 23:46:01;;;;;;;;;;;;;;;14.28;63.5752;102066.7;;;;-82
2022/06/27 23:51:03;;;;;;;;;;;;;;;14.27;63.37207;102065.9;;;;-83
2022/06/27 23:56:02;;;;;;;;;;;;;;;14.23;63.24023;102070.6;;;;-82
